createdAt,value
2019-03-13T00:00:42.652Z,4.70
2019-03-13T00:03:11.554Z,4.80
2019-03-13T00:05:40.405Z,3.90
2019-03-13T00:08:09.497Z,3.10
2019-03-13T00:10:38.713Z,2.50
2019-03-13T00:13:07.663Z,3.10
2019-03-13T00:15:36.795Z,1.40
2019-03-13T00:18:06.189Z,1.90
2019-03-13T00:20:35.018Z,1.10
2019-03-13T00:23:03.868Z,1.00
2019-03-13T00:25:32.798Z,1.00
2019-03-13T00:28:01.663Z,1.00
2019-03-13T00:30:30.510Z,1.00
2019-03-13T00:32:59.509Z,1.00
2019-03-13T00:35:28.270Z,1.00
2019-03-13T00:37:57.279Z,1.00
2019-03-13T00:40:26.143Z,1.00
2019-03-13T00:42:54.898Z,1.00
2019-03-13T00:45:23.677Z,1.00
2019-03-13T00:47:52.448Z,1.00
2019-03-13T00:50:25.957Z,1.00
2019-03-13T00:52:54.737Z,1.00
2019-03-13T00:55:23.588Z,1.00
2019-03-13T00:57:52.547Z,1.00
2019-03-13T01:00:37.719Z,1.00
2019-03-13T01:03:09.072Z,1.00
2019-03-13T01:05:42.443Z,1.00
2019-03-13T01:08:11.257Z,1.00
2019-03-13T01:10:40.599Z,1.00
2019-03-13T01:13:09.352Z,1.00
2019-03-13T01:15:38.172Z,1.00
2019-03-13T01:18:06.966Z,1.00
2019-03-13T01:20:35.795Z,1.00
2019-03-13T01:23:04.602Z,1.00
2019-03-13T01:25:33.796Z,1.10
2019-03-13T01:28:02.817Z,1.80
2019-03-13T01:30:40.852Z,2.70
2019-03-13T01:33:12.915Z,3.30
2019-03-13T01:35:45.612Z,2.90
2019-03-13T01:38:14.427Z,2.80
2019-03-13T01:40:43.284Z,3.20
2019-03-13T01:43:12.362Z,3.30
2019-03-13T01:45:41.159Z,3.20
2019-03-13T01:48:10.258Z,2.60
2019-03-13T01:50:38.996Z,2.60
2019-03-13T01:53:07.764Z,2.80
2019-03-13T01:55:36.642Z,2.80
2019-03-13T01:58:05.623Z,2.90
2019-03-13T02:00:34.737Z,2.40
2019-03-13T02:03:03.788Z,2.50
2019-03-13T02:05:32.575Z,2.70
2019-03-13T02:08:01.341Z,3.00
2019-03-13T02:10:30.148Z,3.00
2019-03-13T02:12:59.250Z,2.60
2019-03-13T02:15:28.239Z,2.90
2019-03-13T02:17:57.234Z,3.10
2019-03-13T02:20:26.250Z,3.60
2019-03-13T02:22:55.003Z,3.40
2019-03-13T02:25:23.768Z,3.70
2019-03-13T02:27:52.805Z,4.30
2019-03-13T02:30:22.857Z,4.90
2019-03-13T02:32:51.910Z,6.50
2019-03-13T02:35:20.683Z,8.70
2019-03-13T02:37:49.430Z,8.40
2019-03-13T02:40:18.420Z,8.50
2019-03-13T02:42:47.200Z,12.90
2019-03-13T02:45:16.563Z,18.00
2019-03-13T02:47:45.339Z,26.10
2019-03-13T02:50:14.326Z,35.20
2019-03-13T02:52:43.384Z,39.80
2019-03-13T02:55:12.779Z,41.90
2019-03-13T02:57:41.896Z,44.80
2019-03-13T03:00:11.885Z,45.10
2019-03-13T03:02:49.828Z,44.60
2019-03-13T03:05:18.606Z,46.40
2019-03-13T03:07:47.369Z,45.30
2019-03-13T03:10:16.617Z,47.40
2019-03-13T03:12:45.675Z,45.90
2019-03-13T03:15:16.333Z,44.00
2019-03-13T03:17:45.196Z,42.60
2019-03-13T03:20:15.849Z,42.30
2019-03-13T03:22:44.712Z,40.70
2019-03-13T03:25:14.257Z,40.50
2019-03-13T03:27:43.181Z,40.10
2019-03-13T03:30:15.245Z,39.20
2019-03-13T03:32:44.346Z,39.20
2019-03-13T03:35:13.156Z,39.80
2019-03-13T03:37:41.948Z,37.20
2019-03-13T03:40:12.702Z,37.80
2019-03-13T03:42:41.527Z,36.90
2019-03-13T03:45:10.473Z,35.40
2019-03-13T03:47:39.626Z,34.60
2019-03-13T03:50:10.354Z,33.50
2019-03-13T03:52:39.203Z,35.20
2019-03-13T03:55:08.086Z,34.00
2019-03-13T03:57:44.250Z,37.20
2019-03-13T04:00:13.209Z,35.00
2019-03-13T04:02:42.087Z,34.90
2019-03-13T04:05:11.114Z,34.40
2019-03-13T04:07:40.253Z,34.00
2019-03-13T04:10:09.303Z,34.80
2019-03-13T04:12:38.105Z,35.40
2019-03-13T04:15:07.088Z,40.80
2019-03-13T04:17:36.147Z,45.60
2019-03-13T04:20:05.603Z,48.10
2019-03-13T04:22:34.789Z,48.60
2019-03-13T04:25:17.305Z,50.70
2019-03-13T04:27:46.464Z,51.70
2019-03-13T04:30:15.300Z,52.70
2019-03-13T04:32:44.106Z,53.20
2019-03-13T04:35:12.934Z,52.20
2019-03-13T04:37:41.694Z,54.30
2019-03-13T04:40:10.544Z,55.30
2019-03-13T04:42:39.374Z,55.90
2019-03-13T04:45:08.416Z,56.40
2019-03-13T04:47:37.223Z,55.20
2019-03-13T04:50:06.192Z,57.70
2019-03-13T04:52:35.543Z,58.10
2019-03-13T04:55:04.855Z,60.30
2019-03-13T04:57:33.634Z,62.10
2019-03-13T05:00:02.763Z,60.90
2019-03-13T05:02:31.582Z,60.50
2019-03-13T05:05:00.424Z,58.30
2019-03-13T05:07:29.243Z,58.20
2019-03-13T05:09:58.497Z,55.20
2019-03-13T05:12:27.275Z,57.20
2019-03-13T05:14:56.130Z,54.10
2019-03-13T05:17:24.973Z,52.90
2019-03-13T05:19:53.800Z,50.00
2019-03-13T05:22:22.536Z,43.90
2019-03-13T05:24:51.558Z,39.40
2019-03-13T05:27:20.351Z,38.20
2019-03-13T05:29:49.392Z,39.40
2019-03-13T05:32:18.253Z,40.30
2019-03-13T05:34:47.057Z,41.30
2019-03-13T05:37:17.325Z,43.00
2019-03-13T05:39:46.411Z,44.20
2019-03-13T05:42:15.295Z,46.30
2019-03-13T05:44:44.370Z,47.50
2019-03-13T05:47:13.168Z,48.70
2019-03-13T05:49:41.986Z,50.10
2019-03-13T05:52:11.303Z,50.90
2019-03-13T05:54:40.034Z,52.70
2019-03-13T05:57:09.124Z,50.90
2019-03-13T05:59:38.215Z,45.90
2019-03-13T06:02:06.999Z,47.40
2019-03-13T06:04:35.863Z,44.00
2019-03-13T06:07:04.684Z,41.90
2019-03-13T06:09:34.041Z,41.90
2019-03-13T06:12:02.882Z,41.60
2019-03-13T06:14:31.684Z,39.90
2019-03-13T06:17:01.276Z,38.90
2019-03-13T06:19:30.380Z,40.40
2019-03-13T06:21:59.189Z,38.60
2019-03-13T06:24:28.080Z,40.10
2019-03-13T06:26:57.200Z,38.60
2019-03-13T06:29:26.340Z,38.20
2019-03-13T06:31:55.180Z,39.60
2019-03-13T06:34:23.972Z,39.70
2019-03-13T06:36:52.716Z,40.20
2019-03-13T06:39:21.800Z,41.10
2019-03-13T06:41:50.737Z,39.00
2019-03-13T06:44:19.855Z,37.80
2019-03-13T06:46:49.036Z,39.20
2019-03-13T06:49:18.035Z,38.20
2019-03-13T06:51:46.820Z,39.70
2019-03-13T06:54:15.599Z,34.20
2019-03-13T06:56:44.387Z,27.70
2019-03-13T06:59:20.656Z,24.50
2019-03-13T07:01:58.348Z,19.60
2019-03-13T07:04:44.762Z,16.40
2019-03-13T07:07:25.067Z,16.10
2019-03-13T07:10:02.085Z,13.40
2019-03-13T07:12:59.238Z,11.40
2019-03-13T07:15:46.103Z,8.50
2019-03-13T07:18:29.433Z,6.70
2019-03-13T07:21:26.757Z,7.30
2019-03-13T07:24:05.543Z,8.70
2019-03-13T07:26:51.235Z,5.60
2019-03-13T07:29:36.320Z,6.20
2019-03-13T07:32:10.520Z,10.00
2019-03-13T07:34:57.226Z,8.80
2019-03-13T07:37:51.479Z,8.30
2019-03-13T07:40:42.250Z,11.90
2019-03-13T07:43:42.106Z,14.00
2019-03-13T07:46:42.244Z,12.90
2019-03-13T07:49:45.604Z,13.90
2019-03-13T07:52:32.714Z,13.60
2019-03-13T07:55:18.402Z,13.70
2019-03-13T07:58:04.718Z,14.10
2019-03-13T08:00:39.244Z,15.30
2019-03-13T08:03:26.211Z,15.10
2019-03-13T08:06:12.815Z,14.90
2019-03-13T08:08:53.344Z,12.80
2019-03-13T08:11:40.007Z,13.30
2019-03-13T08:14:26.739Z,15.10
2019-03-13T08:17:16.430Z,14.70
2019-03-13T08:19:55.300Z,11.70
2019-03-13T08:22:43.406Z,9.40
2019-03-13T08:25:18.186Z,10.10
2019-03-13T08:28:00.226Z,9.00
2019-03-13T08:30:48.347Z,6.40
2019-03-13T08:33:48.439Z,3.70
2019-03-13T08:36:24.015Z,1.00
2019-03-13T08:39:11.941Z,1.00
2019-03-13T08:41:59.928Z,1.00
2019-03-13T08:44:57.113Z,1.20
2019-03-13T08:47:34.014Z,1.00
2019-03-13T08:50:08.219Z,1.00
2019-03-13T08:52:54.747Z,1.00
2019-03-13T08:55:41.828Z,1.00
2019-03-13T08:58:25.975Z,1.00
2019-03-13T09:01:15.475Z,1.00
2019-03-13T09:03:55.494Z,1.00
2019-03-13T09:06:33.956Z,1.00
2019-03-13T09:09:19.300Z,1.00
2019-03-13T09:11:56.435Z,1.00
2019-03-13T09:14:43.425Z,1.00
2019-03-13T09:17:18.120Z,1.00
2019-03-13T09:19:56.829Z,1.00
2019-03-13T09:22:43.513Z,1.00
2019-03-13T09:25:27.395Z,1.00
2019-03-13T09:28:20.865Z,1.00
2019-03-13T09:31:01.394Z,1.00
2019-03-13T09:33:37.482Z,1.00
2019-03-13T09:36:43.556Z,1.00
2019-03-13T09:39:34.533Z,1.00
2019-03-13T09:42:22.491Z,1.00
2019-03-13T09:45:19.284Z,1.00
2019-03-13T09:48:03.062Z,1.00
2019-03-13T09:50:38.113Z,1.00
2019-03-13T09:53:24.309Z,1.00
2019-03-13T09:56:03.839Z,1.00
2019-03-13T09:58:57.841Z,1.00
2019-03-13T10:01:52.048Z,1.60
2019-03-13T10:04:33.609Z,2.00
2019-03-13T10:07:21.499Z,2.00
2019-03-13T10:10:14.014Z,2.10
2019-03-13T10:13:00.342Z,1.30
2019-03-13T10:15:47.021Z,2.20
2019-03-13T10:18:35.331Z,1.90
2019-03-13T10:21:13.930Z,1.70
2019-03-13T10:23:50.638Z,2.40
2019-03-13T10:26:28.921Z,2.90
2019-03-13T10:29:15.623Z,1.40
2019-03-13T10:32:09.682Z,1.70
2019-03-13T10:34:59.035Z,1.00
2019-03-13T10:37:36.295Z,1.00
2019-03-13T10:40:23.465Z,1.00
2019-03-13T10:43:11.415Z,2.90
2019-03-13T10:46:02.934Z,3.50
2019-03-13T10:48:59.885Z,2.00
2019-03-13T10:51:42.538Z,3.30
2019-03-13T10:54:32.056Z,3.20
2019-03-13T10:57:08.062Z,3.30
2019-03-13T10:59:44.741Z,1.80
2019-03-13T11:02:35.872Z,2.60
2019-03-13T11:05:25.080Z,1.60
2019-03-13T11:08:04.458Z,1.70
2019-03-13T11:10:39.119Z,1.60
2019-03-13T11:13:18.993Z,2.20
2019-03-13T11:16:02.192Z,2.20
2019-03-13T11:18:53.353Z,1.00
2019-03-13T11:21:44.948Z,1.00
2019-03-13T11:24:20.150Z,2.20
2019-03-13T11:26:54.413Z,1.50
2019-03-13T11:29:57.413Z,2.40
2019-03-13T11:32:51.073Z,2.30
2019-03-13T11:35:45.948Z,1.00
2019-03-13T11:38:31.342Z,1.60
2019-03-13T11:41:22.460Z,1.20
2019-03-13T11:44:01.825Z,2.10
2019-03-13T11:46:42.985Z,2.30
2019-03-13T11:49:41.285Z,2.50
2019-03-13T11:52:32.536Z,3.30
2019-03-13T11:55:12.927Z,3.30
2019-03-13T11:58:01.237Z,4.80
2019-03-13T12:00:47.797Z,4.80
2019-03-13T12:03:29.432Z,4.00
2019-03-13T12:06:17.481Z,6.40
2019-03-13T12:09:03.965Z,3.80
2019-03-13T12:11:40.739Z,4.20
2019-03-13T12:14:25.022Z,3.30
2019-03-13T12:17:05.765Z,5.40
2019-03-13T12:19:42.850Z,4.70
2019-03-13T12:22:29.182Z,5.50
2019-03-13T12:25:08.088Z,6.60
2019-03-13T12:27:55.958Z,6.70
2019-03-13T12:30:42.633Z,6.60
2019-03-13T12:33:29.563Z,6.40
2019-03-13T12:36:32.766Z,6.90
2019-03-13T12:39:08.958Z,6.30
2019-03-13T12:41:49.795Z,2.00
2019-03-13T12:44:40.853Z,1.00
2019-03-13T12:47:27.316Z,1.00
2019-03-13T12:50:24.328Z,1.00
2019-03-13T12:53:11.148Z,1.00
2019-03-13T12:55:57.272Z,1.00
2019-03-13T12:58:44.426Z,1.00
2019-03-13T13:01:25.702Z,1.00
2019-03-13T13:04:13.696Z,1.00
2019-03-13T13:07:01.755Z,1.00
2019-03-13T13:09:48.024Z,1.00
2019-03-13T13:12:33.066Z,1.00
2019-03-13T13:15:12.535Z,1.00
2019-03-13T13:18:09.129Z,1.00
2019-03-13T13:20:37.880Z,1.00
2019-03-13T13:23:06.643Z,1.00
2019-03-13T13:25:35.715Z,1.00
2019-03-13T13:28:05.109Z,1.00
2019-03-13T13:30:34.147Z,1.00
2019-03-13T13:33:02.907Z,1.00
2019-03-13T13:35:31.681Z,1.00
2019-03-13T13:38:00.450Z,1.00
2019-03-13T13:40:29.336Z,1.00
2019-03-13T13:42:58.090Z,1.00
2019-03-13T13:45:54.307Z,1.00
2019-03-13T13:48:23.346Z,1.00
2019-03-13T13:50:52.104Z,1.00
2019-03-13T13:53:20.922Z,1.00
2019-03-13T13:55:49.803Z,1.00
2019-03-13T13:58:18.840Z,1.00
2019-03-13T14:00:47.696Z,1.00
2019-03-13T14:03:16.484Z,1.00
2019-03-13T14:05:45.542Z,1.00
2019-03-13T14:08:14.316Z,1.00
2019-03-13T14:10:43.099Z,1.00
2019-03-13T14:13:12.096Z,1.00
2019-03-13T14:15:40.855Z,1.00
2019-03-13T14:18:09.695Z,1.00
2019-03-13T14:20:38.518Z,1.00
2019-03-13T14:23:07.279Z,1.00
2019-03-13T14:25:36.066Z,1.00
2019-03-13T14:28:04.917Z,1.00
2019-03-13T14:30:33.810Z,1.00
2019-03-13T14:33:02.671Z,1.00
2019-03-13T14:35:31.452Z,1.00
2019-03-13T14:38:00.179Z,1.00
2019-03-13T14:40:29.191Z,1.00
2019-03-13T14:42:58.219Z,1.00
2019-03-13T14:45:27.058Z,1.00
2019-03-13T14:47:55.879Z,1.00
2019-03-13T14:50:24.606Z,1.00
2019-03-13T14:52:53.319Z,1.00
2019-03-13T14:55:22.103Z,1.00
2019-03-13T14:57:51.118Z,1.00
2019-03-13T15:00:20.064Z,1.50
2019-03-13T15:02:48.950Z,1.00
2019-03-13T15:05:17.800Z,1.00
2019-03-13T15:07:46.782Z,1.00
2019-03-13T15:10:15.772Z,1.00
2019-03-13T15:12:44.568Z,1.80
2019-03-13T15:15:13.462Z,1.80
2019-03-13T15:17:42.507Z,1.80
2019-03-13T15:20:13.569Z,2.20
2019-03-13T15:22:42.432Z,3.30
2019-03-13T15:25:11.749Z,2.20
2019-03-13T15:27:40.487Z,2.40
2019-03-13T15:30:14.988Z,2.90
2019-03-13T15:32:43.776Z,2.80
2019-03-13T15:35:12.643Z,3.50
2019-03-13T15:37:41.499Z,3.10
2019-03-13T15:40:12.131Z,3.90
2019-03-13T15:42:40.887Z,3.90
2019-03-13T15:45:11.621Z,5.30
2019-03-13T15:47:40.400Z,3.30
2019-03-13T15:50:10.245Z,3.80
2019-03-13T15:52:39.136Z,2.60
2019-03-13T15:55:08.759Z,3.10
2019-03-13T15:57:37.752Z,1.80
2019-03-13T16:00:08.548Z,3.30
2019-03-13T16:02:37.553Z,2.60
2019-03-13T16:05:06.632Z,2.90
2019-03-13T16:07:35.448Z,2.50
2019-03-13T16:10:04.440Z,1.40
2019-03-13T16:12:33.392Z,2.10
2019-03-13T16:15:02.179Z,2.20
2019-03-13T16:17:30.956Z,3.10
2019-03-13T16:19:59.778Z,2.50
2019-03-13T16:22:29.138Z,2.90
2019-03-13T16:24:57.988Z,2.80
2019-03-13T16:27:26.791Z,3.70
2019-03-13T16:29:55.648Z,3.70
2019-03-13T16:32:24.768Z,3.90
2019-03-13T16:34:53.747Z,3.40
2019-03-13T16:37:22.507Z,3.60
2019-03-13T16:39:51.503Z,4.40
2019-03-13T16:42:20.267Z,4.00
2019-03-13T16:44:49.023Z,3.80
2019-03-13T16:47:17.874Z,4.10
2019-03-13T16:49:46.663Z,4.70
2019-03-13T16:52:15.589Z,4.10
2019-03-13T16:54:44.596Z,4.30
2019-03-13T16:57:13.456Z,5.30
2019-03-13T16:59:42.362Z,4.60
2019-03-13T17:02:11.409Z,4.70
2019-03-13T17:04:40.163Z,5.30
2019-03-13T17:07:09.436Z,5.20
2019-03-13T17:09:38.212Z,4.80
2019-03-13T17:12:07.312Z,4.90
2019-03-13T17:14:36.613Z,4.60
2019-03-13T17:17:05.394Z,5.10
2019-03-13T17:19:35.243Z,5.70
2019-03-13T17:22:04.094Z,4.60
2019-03-13T17:24:32.937Z,4.50
2019-03-13T17:27:02.000Z,4.50
2019-03-13T17:29:31.040Z,4.40
2019-03-13T17:31:59.792Z,4.20
2019-03-13T17:34:30.527Z,4.40
2019-03-13T17:36:59.392Z,4.70
2019-03-13T17:39:28.233Z,4.60
2019-03-13T17:41:57.096Z,4.30
2019-03-13T17:44:25.897Z,4.20
2019-03-13T17:46:54.658Z,4.20
2019-03-13T17:49:23.436Z,4.40
2019-03-13T17:51:52.904Z,4.20
2019-03-13T17:54:21.680Z,4.20
2019-03-13T17:56:50.702Z,4.30
2019-03-13T17:59:19.635Z,4.40
2019-03-13T18:01:48.484Z,5.10
2019-03-13T18:04:17.489Z,4.50
2019-03-13T18:06:46.548Z,4.60
2019-03-13T18:09:15.544Z,4.20
2019-03-13T18:11:44.343Z,4.50
2019-03-13T18:14:13.367Z,4.40
2019-03-13T18:16:42.120Z,4.60
2019-03-13T18:19:10.916Z,4.50
2019-03-13T18:21:39.726Z,4.70
2019-03-13T18:24:08.515Z,4.60
2019-03-13T18:26:37.351Z,4.70
2019-03-13T18:29:06.193Z,4.80
2019-03-13T18:31:35.241Z,4.70
2019-03-13T18:34:04.156Z,5.50
2019-03-13T18:36:33.120Z,5.80
2019-03-13T18:39:02.126Z,5.60
2019-03-13T18:41:31.006Z,5.30
2019-03-13T18:44:00.064Z,5.50
2019-03-13T18:46:28.843Z,5.60
2019-03-13T18:48:57.608Z,5.70
2019-03-13T18:51:26.762Z,6.20
2019-03-13T18:53:55.644Z,6.60
2019-03-13T18:56:24.776Z,6.70
2019-03-13T18:58:54.116Z,7.40
2019-03-13T19:01:23.131Z,7.20
2019-03-13T19:03:51.978Z,7.30
2019-03-13T19:06:20.856Z,7.80
2019-03-13T19:08:50.015Z,8.00
2019-03-13T19:11:19.013Z,7.90
2019-03-13T19:13:47.800Z,8.50
2019-03-13T19:16:16.853Z,8.70
2019-03-13T19:18:45.691Z,8.50
2019-03-13T19:21:14.764Z,8.70
2019-03-13T19:23:43.782Z,9.00
2019-03-13T19:26:12.627Z,9.40
2019-03-13T19:28:41.563Z,9.70
2019-03-13T19:31:10.467Z,9.80
2019-03-13T19:33:39.554Z,9.50
2019-03-13T19:36:08.399Z,9.90
2019-03-13T19:38:37.649Z,10.80
2019-03-13T19:41:08.929Z,10.80
2019-03-13T19:43:38.362Z,11.10
2019-03-13T19:46:07.477Z,11.60
2019-03-13T19:48:36.224Z,11.70
2019-03-13T19:51:04.978Z,12.10
2019-03-13T19:53:33.958Z,12.60
2019-03-13T19:56:02.731Z,12.80
2019-03-13T19:58:31.574Z,13.00
2019-03-13T20:01:00.542Z,13.20
2019-03-13T20:03:29.377Z,13.70
2019-03-13T20:05:58.138Z,14.20
2019-03-13T20:08:27.164Z,14.10
2019-03-13T20:10:58.079Z,14.60
2019-03-13T20:13:28.258Z,15.00
2019-03-13T20:15:57.480Z,15.20
2019-03-13T20:18:26.388Z,15.90
2019-03-13T20:20:55.299Z,16.10
2019-03-13T20:23:24.107Z,16.90
2019-03-13T20:25:52.963Z,17.60
2019-03-13T20:28:21.828Z,17.80
2019-03-13T20:30:50.680Z,18.80
2019-03-13T20:33:19.490Z,22.40
2019-03-13T20:35:48.477Z,29.10
2019-03-13T20:38:17.207Z,32.10
2019-03-13T20:40:46.080Z,35.10
2019-03-13T20:43:16.208Z,35.70
2019-03-13T20:45:44.946Z,35.40
2019-03-13T20:48:13.711Z,36.50
2019-03-13T20:50:42.442Z,35.70
2019-03-13T20:53:11.319Z,36.00
2019-03-13T20:55:40.647Z,36.00
2019-03-13T20:58:09.623Z,34.40
2019-03-13T21:00:38.397Z,33.90
2019-03-13T21:03:07.193Z,34.70
2019-03-13T21:05:36.032Z,32.20
2019-03-13T21:08:04.900Z,32.80
2019-03-13T21:10:33.739Z,31.30
2019-03-13T21:13:02.491Z,31.00
2019-03-13T21:15:31.240Z,31.00
2019-03-13T21:18:00.091Z,30.10
2019-03-13T21:20:29.196Z,30.20
2019-03-13T21:22:58.682Z,30.10
2019-03-13T21:25:27.877Z,29.60
2019-03-13T21:27:56.816Z,29.70
2019-03-13T21:30:25.961Z,30.20
2019-03-13T21:32:55.140Z,30.50
2019-03-13T21:35:24.296Z,30.80
2019-03-13T21:37:53.119Z,31.90
2019-03-13T21:40:22.094Z,31.30
2019-03-13T21:42:54.138Z,31.30
2019-03-13T21:45:23.141Z,31.30
2019-03-13T21:47:52.520Z,31.70
2019-03-13T21:50:21.267Z,31.80
2019-03-13T21:52:50.496Z,32.20
2019-03-13T21:55:19.432Z,32.70
2019-03-13T21:57:51.702Z,32.20
2019-03-13T22:00:23.041Z,33.00
2019-03-13T22:02:52.126Z,32.60
2019-03-13T22:05:26.156Z,32.70
2019-03-13T22:07:53.097Z,33.00
2019-03-13T22:10:22.158Z,32.70
2019-03-13T22:12:51.068Z,32.80
2019-03-13T22:15:20.066Z,32.90
2019-03-13T22:17:48.875Z,33.40
2019-03-13T22:20:17.756Z,33.40
2019-03-13T22:22:46.701Z,34.00
2019-03-13T22:25:15.710Z,33.90
2019-03-13T22:27:44.752Z,35.20
2019-03-13T22:30:16.446Z,35.00
2019-03-13T22:32:45.333Z,35.00
2019-03-13T22:35:14.433Z,34.60
2019-03-13T22:37:43.256Z,34.60
2019-03-13T22:40:12.335Z,35.40
2019-03-13T22:42:41.375Z,34.80
2019-03-13T22:45:10.939Z,34.40
2019-03-13T22:47:43.109Z,34.70
2019-03-13T22:50:12.235Z,34.90
2019-03-13T22:52:41.088Z,35.50
2019-03-13T22:55:10.092Z,35.40
2019-03-13T22:57:38.872Z,35.50
2019-03-13T23:00:47.380Z,35.70
2019-03-13T23:03:16.748Z,35.80
2019-03-13T23:05:45.845Z,35.50
2019-03-13T23:08:14.773Z,35.20
2019-03-13T23:10:43.676Z,35.40
2019-03-13T23:13:12.748Z,35.20
2019-03-13T23:15:41.768Z,34.80
2019-03-13T23:18:11.011Z,35.10
2019-03-13T23:20:39.866Z,34.80
2019-03-13T23:23:08.619Z,36.50
2019-03-13T23:25:37.392Z,35.70
2019-03-13T23:28:06.492Z,35.30
2019-03-13T23:30:35.356Z,36.90
2019-03-13T23:33:04.172Z,35.80
2019-03-13T23:35:33.235Z,34.70
2019-03-13T23:38:02.131Z,35.20
2019-03-13T23:40:31.127Z,35.10
2019-03-13T23:43:00.270Z,35.40
2019-03-13T23:45:29.120Z,35.30
2019-03-13T23:47:57.866Z,35.60
2019-03-13T23:50:26.939Z,35.00
2019-03-13T23:52:56.005Z,35.10
2019-03-13T23:55:25.086Z,34.30
2019-03-13T23:57:53.851Z,34.70
